createdAt,value
2019-05-16T00:00:45.564Z,95.31
2019-05-16T00:01:45.563Z,95.22
2019-05-16T00:02:45.583Z,95.22
2019-05-16T00:03:45.548Z,96.36
2019-05-16T00:04:48.183Z,95.94
2019-05-16T00:05:51.454Z,95.70
2019-05-16T00:06:45.539Z,96.45
2019-05-16T00:07:49.177Z,97.12
2019-05-16T00:08:47.886Z,97.88
2019-05-16T00:09:45.531Z,97.41
2019-05-16T00:10:45.520Z,97.12
2019-05-16T00:11:45.521Z,97.60
2019-05-16T00:12:45.551Z,97.97
2019-05-16T00:13:45.516Z,98.35
2019-05-16T00:14:45.512Z,96.36
2019-05-16T00:15:45.518Z,96.17
2019-05-16T00:16:45.501Z,96.45
2019-05-16T00:17:45.526Z,95.41
2019-05-16T00:18:47.771Z,95.22
2019-05-16T00:19:45.496Z,96.45
2019-05-16T00:20:45.490Z,97.31
2019-05-16T00:21:45.483Z,95.79
2019-05-16T00:22:45.513Z,95.12
2019-05-16T00:23:45.478Z,94.84
2019-05-16T00:24:45.477Z,94.56
2019-05-16T00:25:47.690Z,94.74
2019-05-16T00:26:47.860Z,94.56
2019-05-16T00:27:47.734Z,92.75
2019-05-16T00:28:45.467Z,93.99
2019-05-16T00:29:45.456Z,94.27
2019-05-16T00:30:45.453Z,94.08
2019-05-16T00:31:45.445Z,94.65
2019-05-16T00:32:47.729Z,95.31
2019-05-16T00:33:45.445Z,93.60
2019-05-16T00:34:47.675Z,94.56
2019-05-16T00:35:45.443Z,90.85
2019-05-16T00:36:45.430Z,91.99
2019-05-16T00:37:45.459Z,91.80
2019-05-16T00:38:45.420Z,92.37
2019-05-16T00:39:45.421Z,92.37
2019-05-16T00:40:45.440Z,93.23
2019-05-16T00:41:47.762Z,92.94
2019-05-16T00:42:45.421Z,92.37
2019-05-16T00:43:45.437Z,93.70
2019-05-16T00:44:47.695Z,94.74
2019-05-16T00:45:45.405Z,94.18
2019-05-16T00:46:45.405Z,96.08
2019-05-16T00:47:47.776Z,95.70
2019-05-16T00:48:45.427Z,98.54
2019-05-16T00:49:47.818Z,99.99
2019-05-16T00:50:45.386Z,97.02
2019-05-16T00:51:45.377Z,99.26
2019-05-16T00:52:45.373Z,95.84
2019-05-16T00:53:45.395Z,97.36
2019-05-16T00:54:45.366Z,97.64
2019-05-16T00:55:45.367Z,96.88
2019-05-16T00:56:45.359Z,97.27
2019-05-16T00:57:45.359Z,96.88
2019-05-16T00:58:45.378Z,97.27
2019-05-16T00:59:45.429Z,96.79
2019-05-16T01:00:45.351Z,94.03
2019-05-16T01:01:45.342Z,92.13
2019-05-16T01:02:45.340Z,92.99
2019-05-16T01:03:45.362Z,87.57
2019-05-16T01:04:45.330Z,95.27
2019-05-16T01:05:45.326Z,94.79
2019-05-16T01:06:45.320Z,93.75
2019-05-16T01:07:45.318Z,94.13
2019-05-16T01:08:45.342Z,96.12
2019-05-16T01:09:45.311Z,99.07
2019-05-16T01:10:45.315Z,96.50
2019-05-16T01:11:45.306Z,93.94
2019-05-16T01:12:45.310Z,93.84
2019-05-16T01:13:45.331Z,96.98
2019-05-16T01:14:45.290Z,96.79
2019-05-16T01:15:45.292Z,96.69
2019-05-16T01:16:45.970Z,94.42
2019-05-16T01:17:45.284Z,90.99
2019-05-16T01:18:45.311Z,90.99
2019-05-16T01:19:45.282Z,92.61
2019-05-16T01:20:45.275Z,90.90
2019-05-16T01:21:45.271Z,91.94
2019-05-16T01:22:45.265Z,94.60
2019-05-16T01:23:45.294Z,93.94
2019-05-16T01:24:45.254Z,95.46
2019-05-16T01:25:45.263Z,98.12
2019-05-16T01:26:45.252Z,94.70
2019-05-16T01:27:47.594Z,94.89
2019-05-16T01:28:45.277Z,94.70
2019-05-16T01:29:47.357Z,92.90
2019-05-16T01:30:45.241Z,93.18
2019-05-16T01:31:45.232Z,95.94
2019-05-16T01:32:45.256Z,98.02
2019-05-16T01:33:45.255Z,97.07
2019-05-16T01:34:45.235Z,96.79
2019-05-16T01:35:45.223Z,95.27
2019-05-16T01:36:45.251Z,97.45
2019-05-16T01:37:45.211Z,96.88
2019-05-16T01:38:45.237Z,95.75
2019-05-16T01:39:45.210Z,98.50
2019-05-16T01:40:45.206Z,96.88
2019-05-16T01:41:45.203Z,98.31
2019-05-16T01:42:45.200Z,96.60
2019-05-16T01:43:45.225Z,96.31
2019-05-16T01:44:45.188Z,99.26
2019-05-16T01:45:45.188Z,95.36
2019-05-16T01:46:45.189Z,96.98
2019-05-16T01:47:45.178Z,96.41
2019-05-16T01:48:45.208Z,97.74
2019-05-16T01:49:45.178Z,96.60
2019-05-16T01:50:45.169Z,96.88
2019-05-16T01:51:45.165Z,95.51
2019-05-16T01:52:45.165Z,96.03
2019-05-16T01:53:45.189Z,94.13
2019-05-16T01:54:45.163Z,96.12
2019-05-16T01:55:45.149Z,95.17
2019-05-16T01:56:45.149Z,96.12
2019-05-16T01:57:45.145Z,94.42
2019-05-16T01:58:45.173Z,93.18
2019-05-16T01:59:45.144Z,96.12
2019-05-16T02:00:52.771Z,93.89
2019-05-16T02:01:45.129Z,91.52
2019-05-16T02:02:45.131Z,91.47
2019-05-16T02:03:45.159Z,92.85
2019-05-16T02:04:45.239Z,94.60
2019-05-16T02:05:45.122Z,92.85
2019-05-16T02:06:51.606Z,94.74
2019-05-16T02:07:45.115Z,93.89
2019-05-16T02:08:45.130Z,91.99
2019-05-16T02:09:45.109Z,92.09
2019-05-16T02:10:45.107Z,92.66
2019-05-16T02:11:45.097Z,90.57
2019-05-16T02:12:45.097Z,91.42
2019-05-16T02:13:45.117Z,93.70
2019-05-16T02:14:45.090Z,91.42
2019-05-16T02:15:45.092Z,92.18
2019-05-16T02:16:45.078Z,91.42
2019-05-16T02:17:45.073Z,87.62
2019-05-16T02:18:45.116Z,87.53
2019-05-16T02:19:45.068Z,86.20
2019-05-16T02:20:45.074Z,82.40
2019-05-16T02:21:45.059Z,80.60
2019-05-16T02:22:45.060Z,84.97
2019-05-16T02:23:45.088Z,85.35
2019-05-16T02:24:45.048Z,86.77
2019-05-16T02:25:45.047Z,86.30
2019-05-16T02:26:45.058Z,86.01
2019-05-16T02:27:45.037Z,86.20
2019-05-16T02:28:45.069Z,85.25
2019-05-16T02:29:45.060Z,82.88
2019-05-16T02:30:45.032Z,76.99
2019-05-16T02:31:45.024Z,75.38
2019-05-16T02:32:45.029Z,78.70
2019-05-16T02:33:45.022Z,75.47
2019-05-16T02:34:45.041Z,76.90
2019-05-16T02:35:45.016Z,77.43
2019-05-16T02:36:45.009Z,78.28
2019-05-16T02:37:45.004Z,79.80
2019-05-16T02:38:44.998Z,80.37
2019-05-16T02:39:45.030Z,80.65
2019-05-16T02:40:44.994Z,81.04
2019-05-16T02:41:46.150Z,80.37
2019-05-16T02:42:44.982Z,79.23
2019-05-16T02:43:45.015Z,79.71
2019-05-16T02:44:44.975Z,77.90
2019-05-16T02:45:44.972Z,72.97
2019-05-16T02:46:44.969Z,75.53
2019-05-16T02:47:44.963Z,75.05
2019-05-16T02:48:44.997Z,75.15
2019-05-16T02:49:44.984Z,73.72
2019-05-16T02:50:44.955Z,73.54
2019-05-16T02:51:44.951Z,72.11
2019-05-16T02:52:44.949Z,71.64
2019-05-16T02:53:44.945Z,69.46
2019-05-16T02:54:44.962Z,69.65
2019-05-16T02:55:44.934Z,68.98
2019-05-16T02:56:44.932Z,71.17
2019-05-16T02:57:44.929Z,71.17
2019-05-16T02:58:45.244Z,68.51
2019-05-16T02:59:44.949Z,70.40
2019-05-16T03:00:44.919Z,69.36
2019-05-16T03:01:44.913Z,68.32
2019-05-16T03:02:44.908Z,61.77
2019-05-16T03:03:44.909Z,50.95
2019-05-16T03:04:44.927Z,51.90
2019-05-16T03:05:44.929Z,53.14
2019-05-16T03:06:44.892Z,53.04
2019-05-16T03:07:47.075Z,49.53
2019-05-16T03:08:44.884Z,43.10
2019-05-16T03:09:44.887Z,39.97
2019-05-16T03:10:44.902Z,39.87
2019-05-16T03:11:44.884Z,40.63
2019-05-16T03:12:44.868Z,42.72
2019-05-16T03:13:44.865Z,45.19
2019-05-16T03:14:44.889Z,45.76
2019-05-16T03:15:44.883Z,46.51
2019-05-16T03:16:44.855Z,40.63
2019-05-16T03:17:44.850Z,40.16
2019-05-16T03:18:44.845Z,39.11
2019-05-16T03:19:44.842Z,37.59
2019-05-16T03:20:44.866Z,35.79
2019-05-16T03:21:44.839Z,36.26
2019-05-16T03:22:44.831Z,37.02
2019-05-16T03:23:44.825Z,37.30
2019-05-16T03:24:44.826Z,37.30
2019-05-16T03:25:44.851Z,39.30
2019-05-16T03:26:44.810Z,40.06
2019-05-16T03:27:44.812Z,41.58
2019-05-16T03:28:44.810Z,39.01
2019-05-16T03:29:44.806Z,38.35
2019-05-16T03:30:45.512Z,38.54
2019-05-16T03:31:45.576Z,39.11
2019-05-16T03:32:46.101Z,41.01
2019-05-16T03:33:56.260Z,41.58
2019-05-16T03:34:44.821Z,40.82
2019-05-16T03:35:45.245Z,38.64
2019-05-16T03:36:44.774Z,34.94
2019-05-16T03:37:54.929Z,34.65
2019-05-16T03:38:44.766Z,35.22
2019-05-16T03:39:44.771Z,34.75
2019-05-16T03:40:44.789Z,34.36
2019-05-16T03:41:44.752Z,38.92
2019-05-16T03:42:44.749Z,36.83
2019-05-16T03:43:44.747Z,33.04
2019-05-16T03:44:44.744Z,35.69
2019-05-16T03:45:44.769Z,35.31
2019-05-16T03:46:44.734Z,32.94
2019-05-16T03:47:44.732Z,33.89
2019-05-16T03:48:44.724Z,33.61
2019-05-16T03:49:44.723Z,34.55
2019-05-16T03:50:44.742Z,37.50
2019-05-16T03:51:44.715Z,39.57
2019-05-16T03:52:44.711Z,38.26
2019-05-16T03:53:44.717Z,36.07
2019-05-16T03:54:44.705Z,36.93
2019-05-16T03:55:44.727Z,33.98
2019-05-16T03:56:44.694Z,32.94
2019-05-16T03:57:44.691Z,32.75
2019-05-16T03:58:44.689Z,35.60
2019-05-16T03:59:44.687Z,35.69
2019-05-16T04:00:45.705Z,33.23
2019-05-16T04:01:44.703Z,32.65
2019-05-16T04:02:45.805Z,31.90
2019-05-16T04:03:44.667Z,33.51
2019-05-16T04:04:44.917Z,32.94
2019-05-16T04:05:44.660Z,36.46
2019-05-16T04:06:44.684Z,33.70
2019-05-16T04:07:44.653Z,32.56
2019-05-16T04:08:44.651Z,32.56
2019-05-16T04:09:44.648Z,32.37
2019-05-16T04:10:44.641Z,34.17
2019-05-16T04:11:44.659Z,33.42
2019-05-16T04:12:44.631Z,33.61
2019-05-16T04:13:44.627Z,32.94
2019-05-16T04:14:44.620Z,32.65
2019-05-16T04:15:44.616Z,32.09
2019-05-16T04:16:44.647Z,31.13
2019-05-16T04:17:44.613Z,30.94
2019-05-16T04:18:44.608Z,29.52
2019-05-16T04:19:44.606Z,28.86
2019-05-16T04:20:44.600Z,29.33
2019-05-16T04:21:44.629Z,29.05
2019-05-16T04:22:44.588Z,27.91
2019-05-16T04:23:44.599Z,28.29
2019-05-16T04:24:44.808Z,30.57
2019-05-16T04:25:44.576Z,31.13
2019-05-16T04:26:44.614Z,30.85
2019-05-16T04:27:44.571Z,30.66
2019-05-16T04:28:44.564Z,29.71
2019-05-16T04:29:44.571Z,27.81
2019-05-16T04:30:44.564Z,26.86
2019-05-16T04:31:44.585Z,26.96
2019-05-16T04:32:44.552Z,27.53
2019-05-16T04:33:44.551Z,29.14
2019-05-16T04:34:44.553Z,28.38
2019-05-16T04:35:44.549Z,28.77
2019-05-16T04:36:44.576Z,27.06
2019-05-16T04:37:44.530Z,28.00
2019-05-16T04:38:46.825Z,28.38
2019-05-16T04:39:44.528Z,33.32
2019-05-16T04:40:44.519Z,33.61
2019-05-16T04:41:44.549Z,31.42
2019-05-16T04:42:44.546Z,29.05
2019-05-16T04:43:44.510Z,30.09
2019-05-16T04:44:45.496Z,34.27
2019-05-16T04:45:44.516Z,36.17
2019-05-16T04:46:44.508Z,35.98
2019-05-16T04:47:44.526Z,36.46
2019-05-16T04:48:44.493Z,33.70
2019-05-16T04:49:44.490Z,33.23
2019-05-16T04:50:44.491Z,33.98
2019-05-16T04:51:44.483Z,35.98
2019-05-16T04:52:44.505Z,35.71
2019-05-16T04:53:44.471Z,39.30
2019-05-16T04:54:44.477Z,38.75
2019-05-16T04:55:44.461Z,40.08
2019-05-16T04:56:44.466Z,38.85
2019-05-16T04:57:44.498Z,38.73
2019-05-16T04:58:44.454Z,39.79
2019-05-16T04:59:44.459Z,39.79
2019-05-16T05:00:44.455Z,40.75
2019-05-16T05:01:44.448Z,39.79
2019-05-16T05:02:44.471Z,39.23
2019-05-16T05:04:00.191Z,41.22
2019-05-16T05:04:45.411Z,41.98
2019-05-16T05:05:44.432Z,41.22
2019-05-16T05:06:44.430Z,43.50
2019-05-16T05:07:44.458Z,42.27
2019-05-16T05:08:53.936Z,43.41
2019-05-16T05:09:44.421Z,44.64
2019-05-16T05:10:44.415Z,43.88
2019-05-16T05:11:44.411Z,44.83
2019-05-16T05:12:44.438Z,41.41
2019-05-16T05:13:44.411Z,47.02
2019-05-16T05:14:44.409Z,47.58
2019-05-16T05:15:44.396Z,45.12
2019-05-16T05:16:44.393Z,48.16
2019-05-16T05:17:44.425Z,44.17
2019-05-16T05:18:44.387Z,47.58
2019-05-16T05:19:44.392Z,47.30
2019-05-16T05:20:44.388Z,44.93
2019-05-16T05:21:44.380Z,47.11
2019-05-16T05:22:44.407Z,48.35
2019-05-16T05:23:44.375Z,50.81
2019-05-16T05:24:44.368Z,46.64
2019-05-16T05:25:44.369Z,50.62
2019-05-16T05:26:44.363Z,53.09
2019-05-16T05:27:44.387Z,53.47
2019-05-16T05:28:44.355Z,52.91
2019-05-16T05:29:44.350Z,53.85
2019-05-16T05:30:44.355Z,49.96
2019-05-16T05:31:45.584Z,50.62
2019-05-16T05:32:44.379Z,49.39
2019-05-16T05:33:44.343Z,52.24
2019-05-16T05:34:44.331Z,53.47
2019-05-16T05:35:44.347Z,52.43
2019-05-16T05:36:44.341Z,51.57
2019-05-16T05:37:44.363Z,47.20
2019-05-16T05:38:44.320Z,49.49
2019-05-16T05:39:44.319Z,47.39
2019-05-16T05:40:44.311Z,50.05
2019-05-16T05:41:44.318Z,50.43
2019-05-16T05:42:44.353Z,51.76
2019-05-16T05:43:44.305Z,49.87
2019-05-16T05:44:44.448Z,48.63
2019-05-16T05:45:44.296Z,49.10
2019-05-16T05:46:44.314Z,43.79
2019-05-16T05:47:44.327Z,43.02
2019-05-16T05:48:44.293Z,46.25
2019-05-16T05:49:44.288Z,45.02
2019-05-16T05:50:44.281Z,49.10
2019-05-16T05:51:44.279Z,47.02
2019-05-16T05:52:46.164Z,46.16
2019-05-16T05:53:44.275Z,47.02
2019-05-16T05:54:44.269Z,47.39
2019-05-16T05:55:44.268Z,43.60
2019-05-16T05:56:44.266Z,43.21
2019-05-16T05:57:44.291Z,43.50
2019-05-16T05:58:44.255Z,41.69
2019-05-16T05:59:44.255Z,43.50
2019-05-16T06:00:44.255Z,43.79
2019-05-16T06:01:44.249Z,44.45
2019-05-16T06:02:44.268Z,43.41
2019-05-16T06:03:44.242Z,43.02
2019-05-16T06:04:44.237Z,41.50
2019-05-16T06:05:44.236Z,42.17
2019-05-16T06:06:45.067Z,43.50
2019-05-16T06:07:44.265Z,41.41
2019-05-16T06:08:44.229Z,42.17
2019-05-16T06:09:53.641Z,43.60
2019-05-16T06:10:44.220Z,42.55
2019-05-16T06:11:44.220Z,45.40
2019-05-16T06:12:44.239Z,43.98
2019-05-16T06:13:44.210Z,41.89
2019-05-16T06:14:44.203Z,38.46
2019-05-16T06:15:44.207Z,36.09
2019-05-16T06:16:44.202Z,36.94
2019-05-16T06:17:44.239Z,38.56
2019-05-16T06:18:44.204Z,42.36
2019-05-16T06:19:44.190Z,42.27
2019-05-16T06:20:44.186Z,39.61
2019-05-16T06:21:45.455Z,40.37
2019-05-16T06:22:44.209Z,40.46
2019-05-16T06:23:44.185Z,43.12
2019-05-16T06:24:44.175Z,42.08
2019-05-16T06:25:44.177Z,38.28
2019-05-16T06:26:44.177Z,36.28
2019-05-16T06:27:44.214Z,36.28
2019-05-16T06:28:44.162Z,33.34
2019-05-16T06:29:44.164Z,34.48
2019-05-16T06:30:44.153Z,33.81
2019-05-16T06:31:44.154Z,35.05
2019-05-16T06:32:44.174Z,38.56
2019-05-16T06:33:44.171Z,35.14
2019-05-16T06:34:44.142Z,37.13
2019-05-16T06:35:44.138Z,36.46
2019-05-16T06:36:44.138Z,36.65
2019-05-16T06:37:44.142Z,34.55
2019-05-16T06:38:44.173Z,31.90
2019-05-16T06:39:45.488Z,29.24
2019-05-16T06:40:44.122Z,30.38
2019-05-16T06:41:44.125Z,30.57
2019-05-16T06:42:44.152Z,31.23
2019-05-16T06:43:44.115Z,29.24
2019-05-16T06:44:44.115Z,28.96
2019-05-16T06:45:44.106Z,29.05
2019-05-16T06:47:00.279Z,29.14
2019-05-16T06:47:44.134Z,28.67
2019-05-16T06:48:44.102Z,28.00
2019-05-16T06:49:44.093Z,27.15
2019-05-16T06:50:44.091Z,28.00
2019-05-16T06:51:44.084Z,27.62
2019-05-16T06:52:45.837Z,25.92
2019-05-16T06:53:44.081Z,24.96
2019-05-16T06:54:44.072Z,23.64
2019-05-16T06:55:44.076Z,22.69
2019-05-16T06:56:44.087Z,21.83
2019-05-16T06:57:44.095Z,20.69
2019-05-16T06:58:48.232Z,19.27
2019-05-16T06:59:44.055Z,17.56
2019-05-16T07:00:44.055Z,15.66
2019-05-16T07:01:44.051Z,12.43
2019-05-16T07:02:44.079Z,10.91
2019-05-16T07:03:44.083Z,10.91
2019-05-16T07:04:44.043Z,10.72
2019-05-16T07:05:44.040Z,12.15
2019-05-16T07:06:57.914Z,12.62
2019-05-16T07:07:44.028Z,12.15
2019-05-16T07:08:44.058Z,12.53
2019-05-16T07:09:57.289Z,11.77
2019-05-16T07:10:44.038Z,11.68
2019-05-16T07:11:44.011Z,11.77
2019-05-16T07:12:44.037Z,11.49
2019-05-16T07:13:44.011Z,12.82
2019-05-16T07:14:44.007Z,12.73
2019-05-16T07:15:44.004Z,12.73
2019-05-16T07:16:44.003Z,12.06
2019-05-16T07:17:44.023Z,12.54
2019-05-16T07:18:44.014Z,12.16
2019-05-16T07:19:43.995Z,13.29
2019-05-16T07:20:44.004Z,13.68
2019-05-16T07:21:43.984Z,14.06
2019-05-16T07:22:44.008Z,13.58
2019-05-16T07:23:44.004Z,13.96
2019-05-16T07:24:43.981Z,14.25
2019-05-16T07:25:43.969Z,14.53
2019-05-16T07:26:43.971Z,16.33
2019-05-16T07:27:43.960Z,19.76
2019-05-16T07:28:43.989Z,18.99
2019-05-16T07:29:43.956Z,16.91
2019-05-16T07:30:43.960Z,15.29
2019-05-16T07:31:43.952Z,14.91
2019-05-16T07:32:43.976Z,15.00
2019-05-16T07:33:43.944Z,14.06
2019-05-16T07:34:43.983Z,16.62
2019-05-16T07:35:43.945Z,18.52
2019-05-16T07:36:43.936Z,18.52
2019-05-16T07:37:43.940Z,18.80
2019-05-16T07:38:43.961Z,17.10
2019-05-16T07:39:43.945Z,15.87
2019-05-16T07:40:43.923Z,15.77
2019-05-16T07:41:43.918Z,15.58
2019-05-16T07:42:43.921Z,15.20
2019-05-16T07:43:43.941Z,16.35
2019-05-16T07:44:43.913Z,15.68
2019-05-16T07:45:43.909Z,14.54
2019-05-16T07:46:44.705Z,14.92
2019-05-16T07:47:43.902Z,12.73
2019-05-16T07:48:43.940Z,13.29
2019-05-16T07:49:43.929Z,15.10
2019-05-16T07:50:43.899Z,15.39
2019-05-16T07:51:43.892Z,15.39
2019-05-16T07:52:43.893Z,16.05
2019-05-16T07:53:43.891Z,15.39
2019-05-16T07:54:43.909Z,15.29
2019-05-16T07:55:43.877Z,14.43
2019-05-16T07:56:43.877Z,15.95
2019-05-16T07:57:43.873Z,13.96
2019-05-16T07:58:43.872Z,13.96
2019-05-16T07:59:43.893Z,14.06
2019-05-16T08:00:52.534Z,15.00
2019-05-16T08:01:44.417Z,14.91
2019-05-16T08:02:43.858Z,14.62
2019-05-16T08:03:44.107Z,13.87
2019-05-16T08:04:43.878Z,13.77
2019-05-16T08:05:43.851Z,16.24
2019-05-16T08:06:46.691Z,16.14
2019-05-16T08:07:43.838Z,15.48
2019-05-16T08:08:43.858Z,16.91
2019-05-16T08:09:43.872Z,15.95
2019-05-16T08:10:46.659Z,16.81
2019-05-16T08:11:43.832Z,18.52
2019-05-16T08:12:43.841Z,18.24
2019-05-16T08:13:43.826Z,16.80
2019-05-16T08:14:43.846Z,16.14
2019-05-16T08:15:43.845Z,15.00
2019-05-16T08:16:43.826Z,15.29
2019-05-16T08:17:44.598Z,14.62
2019-05-16T08:18:45.179Z,15.10
2019-05-16T08:19:43.809Z,14.06
2019-05-16T08:20:43.836Z,13.85
2019-05-16T08:21:43.915Z,12.81
2019-05-16T08:22:43.796Z,11.96
2019-05-16T08:23:43.795Z,12.15
2019-05-16T08:24:43.790Z,11.20
2019-05-16T08:25:43.814Z,9.02
2019-05-16T08:26:43.780Z,8.64
2019-05-16T08:27:43.778Z,9.02
2019-05-16T08:28:43.786Z,8.54
2019-05-16T08:29:43.775Z,8.36
2019-05-16T08:30:43.795Z,8.35
2019-05-16T08:31:43.764Z,7.79
2019-05-16T08:32:43.762Z,7.50
2019-05-16T08:33:43.767Z,6.93
2019-05-16T08:34:43.759Z,7.03
2019-05-16T08:35:43.793Z,7.59
2019-05-16T08:36:43.746Z,7.03
2019-05-16T08:37:46.976Z,7.31
2019-05-16T08:38:44.538Z,7.40
2019-05-16T08:39:43.792Z,6.74
2019-05-16T08:41:04.696Z,6.93
2019-05-16T08:41:43.872Z,6.84
2019-05-16T08:42:43.724Z,5.22
2019-05-16T08:43:43.736Z,5.03
2019-05-16T08:44:43.752Z,5.22
2019-05-16T08:45:43.752Z,5.51
2019-05-16T08:46:43.719Z,6.36
2019-05-16T08:47:43.746Z,6.36
2019-05-16T08:48:43.709Z,6.27
2019-05-16T08:49:43.732Z,5.69
2019-05-16T08:50:50.279Z,5.13
2019-05-16T08:51:43.706Z,4.84
2019-05-16T08:52:44.087Z,4.08
2019-05-16T08:53:43.783Z,4.18
2019-05-16T08:54:44.203Z,4.65
2019-05-16T08:55:44.091Z,4.46
2019-05-16T08:56:44.603Z,5.41
2019-05-16T08:57:43.689Z,6.56
2019-05-16T08:58:43.673Z,5.51
2019-05-16T08:59:43.729Z,5.04
2019-05-16T09:00:43.797Z,4.46
2019-05-16T09:01:51.970Z,4.46
2019-05-16T09:02:43.846Z,4.27
2019-05-16T09:03:43.665Z,4.37
2019-05-16T09:05:43.700Z,7.31
2019-05-16T09:06:43.658Z,5.04
2019-05-16T09:07:43.677Z,4.37
2019-05-16T09:08:43.657Z,8.93
2019-05-16T09:10:30.922Z,5.22
2019-05-16T09:10:34.428Z,9.97
2019-05-16T09:10:55.757Z,8.45
2019-05-16T09:11:48.428Z,5.41
2019-05-16T09:12:43.640Z,5.32
2019-05-16T09:13:43.642Z,5.13
2019-05-16T09:14:43.642Z,5.13
2019-05-16T09:15:43.629Z,4.94
2019-05-16T09:16:43.710Z,7.60
2019-05-16T09:17:43.627Z,8.07
2019-05-16T09:18:45.935Z,8.84
2019-05-16T09:19:43.624Z,9.41
2019-05-16T09:20:43.614Z,8.84
2019-05-16T09:21:43.660Z,11.21
2019-05-16T09:22:43.610Z,11.59
2019-05-16T09:23:43.697Z,9.22
2019-05-16T09:24:43.605Z,11.88
2019-05-16T09:25:43.649Z,12.16
2019-05-16T09:26:43.601Z,11.02
2019-05-16T09:27:43.626Z,10.36
2019-05-16T09:28:43.639Z,8.84
2019-05-16T09:29:43.590Z,9.03
2019-05-16T09:30:43.596Z,7.98
2019-05-16T09:32:06.369Z,8.64
2019-05-16T09:32:43.602Z,8.07
2019-05-16T09:33:43.614Z,8.17
2019-05-16T09:34:43.579Z,6.74
2019-05-16T09:35:43.599Z,6.37
2019-05-16T09:36:43.602Z,6.56
2019-05-16T09:37:43.574Z,6.08
2019-05-16T09:38:43.570Z,5.98
2019-05-16T09:39:43.566Z,5.70
2019-05-16T09:40:43.598Z,4.75
2019-05-16T09:41:53.958Z,5.51
2019-05-16T09:42:43.582Z,6.37
2019-05-16T09:43:43.562Z,5.79
2019-05-16T09:44:43.555Z,6.27
2019-05-16T09:45:43.549Z,6.08
2019-05-16T09:46:43.542Z,6.37
2019-05-16T09:47:43.574Z,5.41
2019-05-16T09:48:43.557Z,5.51
2019-05-16T09:49:43.538Z,5.51
2019-05-16T09:50:43.536Z,5.41
2019-05-16T09:51:43.573Z,5.32
2019-05-16T09:52:43.564Z,5.04
2019-05-16T09:53:43.537Z,5.13
2019-05-16T09:54:43.537Z,5.70
2019-05-16T09:55:43.523Z,6.56
2019-05-16T09:56:43.527Z,7.60
2019-05-16T09:57:43.552Z,8.36
2019-05-16T09:58:43.523Z,10.75
2019-05-16T09:59:43.515Z,13.22
2019-05-16T10:00:43.520Z,16.93
2019-05-16T10:01:43.512Z,15.60
2019-05-16T10:02:43.533Z,18.55
2019-05-16T10:03:43.501Z,19.88
2019-05-16T10:04:43.504Z,21.88
2019-05-16T10:05:43.501Z,18.55
2019-05-16T10:06:43.495Z,15.22
2019-05-16T10:07:43.525Z,18.07
2019-05-16T10:08:43.492Z,17.41
2019-05-16T10:09:47.024Z,19.21
2019-05-16T10:10:43.487Z,18.36
2019-05-16T10:11:43.515Z,24.63
2019-05-16T10:12:43.507Z,26.06
2019-05-16T10:13:43.493Z,23.59
2019-05-16T10:14:43.480Z,23.11
2019-05-16T10:15:43.477Z,25.96
2019-05-16T10:16:43.480Z,23.78
2019-05-16T10:17:43.502Z,18.16
2019-05-16T10:18:43.472Z,19.31
2019-05-16T10:19:43.476Z,18.36
2019-05-16T10:20:43.478Z,20.45
2019-05-16T10:21:43.591Z,19.98
2019-05-16T10:22:43.494Z,17.50
2019-05-16T10:23:43.464Z,18.16
2019-05-16T10:24:43.464Z,16.08
2019-05-16T10:25:43.465Z,13.89
2019-05-16T10:26:43.452Z,10.75
2019-05-16T10:27:43.485Z,12.37
2019-05-16T10:28:43.464Z,15.98
2019-05-16T10:29:43.454Z,16.06
2019-05-16T10:30:43.445Z,11.22
2019-05-16T10:31:49.276Z,10.64
2019-05-16T10:32:43.481Z,9.12
2019-05-16T10:33:43.445Z,7.42
2019-05-16T10:34:43.448Z,5.51
2019-05-16T10:35:43.447Z,5.41
2019-05-16T10:36:43.452Z,7.04
2019-05-16T10:37:43.467Z,8.08
2019-05-16T10:38:43.431Z,9.03
2019-05-16T10:39:43.430Z,10.64
2019-05-16T10:40:43.433Z,8.84
2019-05-16T10:41:43.436Z,11.88
2019-05-16T10:42:43.453Z,13.59
2019-05-16T10:43:43.424Z,13.97
2019-05-16T10:44:43.421Z,13.21
2019-05-16T10:45:43.421Z,12.84
2019-05-16T10:46:43.421Z,14.93
2019-05-16T10:47:43.449Z,15.12
2019-05-16T10:48:43.409Z,18.74
2019-05-16T10:49:43.413Z,20.92
2019-05-16T10:50:43.489Z,16.93
2019-05-16T10:51:43.477Z,15.98
2019-05-16T10:52:43.432Z,14.55
2019-05-16T10:54:04.471Z,17.79
2019-05-16T10:54:55.328Z,20.07
2019-05-16T10:55:43.410Z,18.26
2019-05-16T10:56:43.459Z,16.36
2019-05-16T10:57:43.503Z,15.98
2019-05-16T10:59:03.989Z,15.88
2019-05-16T11:00:08.945Z,14.55
2019-05-16T11:01:07.903Z,17.60
2019-05-16T11:01:43.429Z,14.64
2019-05-16T11:02:43.427Z,12.65
2019-05-16T11:03:43.410Z,12.08
2019-05-16T11:04:57.308Z,10.94
2019-05-16T11:05:43.377Z,12.74
2019-05-16T11:06:43.374Z,11.22
2019-05-16T11:07:43.411Z,11.22
2019-05-16T11:08:43.402Z,11.22
2019-05-16T11:09:54.934Z,11.89
2019-05-16T11:10:43.401Z,11.41
2019-05-16T11:11:43.370Z,10.27
2019-05-16T11:12:50.247Z,8.27
2019-05-16T11:13:43.409Z,9.61
2019-05-16T11:14:43.359Z,13.79
2019-05-16T11:15:43.350Z,13.79
2019-05-16T11:16:43.359Z,14.26
2019-05-16T11:17:43.357Z,12.65
2019-05-16T11:18:43.390Z,14.84
2019-05-16T11:19:43.349Z,16.93
2019-05-16T11:20:45.890Z,17.70
2019-05-16T11:21:43.348Z,18.74
2019-05-16T11:22:43.340Z,17.32
2019-05-16T11:23:43.366Z,18.46
2019-05-16T11:24:43.445Z,25.89
2019-05-16T11:25:43.339Z,25.31
2019-05-16T11:26:43.338Z,29.22
2019-05-16T11:27:43.369Z,33.22
2019-05-16T11:28:43.330Z,35.78
2019-05-16T11:29:43.360Z,26.55
2019-05-16T11:30:43.328Z,20.75
2019-05-16T11:31:43.324Z,23.79
2019-05-16T11:32:43.331Z,25.98
2019-05-16T11:33:43.340Z,34.64
2019-05-16T11:34:43.344Z,22.17
2019-05-16T11:35:43.320Z,31.21
2019-05-16T11:36:43.325Z,21.60
2019-05-16T11:37:43.348Z,28.83
2019-05-16T11:38:43.319Z,23.40
2019-05-16T11:39:43.347Z,20.17
2019-05-16T11:40:43.933Z,16.83
2019-05-16T11:41:43.311Z,17.41
2019-05-16T11:42:43.304Z,17.69
2019-05-16T11:43:43.301Z,21.40
2019-05-16T11:44:43.330Z,21.02
2019-05-16T11:45:43.310Z,18.55
2019-05-16T11:46:43.299Z,20.07
2019-05-16T11:47:43.300Z,18.84
2019-05-16T11:48:43.327Z,16.17
2019-05-16T11:49:43.297Z,23.30
2019-05-16T11:50:43.295Z,22.35
2019-05-16T11:51:43.296Z,20.26
2019-05-16T11:52:43.316Z,23.21
2019-05-16T11:53:43.287Z,18.64
2019-05-16T11:54:43.314Z,19.88
2019-05-16T11:55:51.752Z,18.55
2019-05-16T11:56:43.284Z,19.98
2019-05-16T11:57:43.284Z,19.02
2019-05-16T11:58:43.286Z,16.17
2019-05-16T11:59:43.309Z,13.51
2019-05-16T12:00:43.273Z,15.50
2019-05-16T12:01:43.285Z,14.65
2019-05-16T12:02:43.269Z,14.37
2019-05-16T12:03:43.269Z,13.32
2019-05-16T12:04:43.292Z,16.94
2019-05-16T12:05:43.261Z,18.64
2019-05-16T12:06:43.265Z,21.50
2019-05-16T12:07:44.533Z,18.45
2019-05-16T12:08:43.254Z,17.31
2019-05-16T12:09:50.620Z,18.26
2019-05-16T12:10:43.253Z,20.54
2019-05-16T12:11:43.255Z,19.31
2019-05-16T12:12:43.933Z,18.26
2019-05-16T12:13:43.249Z,19.21
2019-05-16T12:14:43.277Z,19.59
2019-05-16T12:15:43.246Z,16.08
2019-05-16T12:16:43.251Z,20.64
2019-05-16T12:17:43.246Z,20.64
2019-05-16T12:18:43.239Z,19.22
2019-05-16T12:19:44.046Z,17.13
2019-05-16T12:20:43.239Z,15.23
2019-05-16T12:21:43.235Z,18.27
2019-05-16T12:22:43.229Z,17.32
2019-05-16T12:23:43.230Z,21.90
2019-05-16T12:24:43.256Z,20.85
2019-05-16T12:25:43.229Z,22.66
2019-05-16T12:26:43.253Z,29.33
2019-05-16T12:27:43.223Z,33.14
2019-05-16T12:28:43.224Z,31.13
2019-05-16T12:29:43.251Z,34.39
2019-05-16T12:30:43.218Z,38.87
2019-05-16T12:31:55.411Z,32.68
2019-05-16T12:32:43.210Z,38.49
2019-05-16T12:33:43.239Z,41.53
2019-05-16T12:34:43.215Z,46.11
2019-05-16T12:35:43.299Z,53.73
2019-05-16T12:36:43.210Z,44.96
2019-05-16T12:37:43.208Z,49.54
2019-05-16T12:38:43.216Z,49.06
2019-05-16T12:39:43.203Z,51.89
2019-05-16T12:40:43.234Z,52.09
2019-05-16T12:41:43.218Z,47.04
2019-05-16T12:42:43.203Z,39.70
2019-05-16T12:43:49.430Z,40.73
2019-05-16T12:44:43.219Z,37.12
2019-05-16T12:45:43.235Z,32.64
2019-05-16T12:46:43.203Z,29.31
2019-05-16T12:47:43.198Z,29.88
2019-05-16T12:48:43.207Z,29.22
2019-05-16T12:49:43.199Z,28.45
2019-05-16T12:50:43.223Z,26.55
2019-05-16T12:51:43.196Z,27.22
2019-05-16T12:52:43.206Z,25.51
2019-05-16T12:53:43.195Z,24.17
2019-05-16T12:54:43.201Z,27.79
2019-05-16T12:55:43.224Z,24.74